sensor_id;sensor_type;location;lat;lon;timestamp;P1;durP1;ratioP1;P2;durP2;ratioP2
5245;SDS011;54412;51.206;6.888;2022-07-22T00:02:13;8.93;;;5.80;;
5245;SDS011;54412;51.206;6.888;2022-07-22T00:04:39;8.57;;;5.07;;
5245;SDS011;54412;51.206;6.888;2022-07-22T00:07:04;8.60;;;5.67;;
5245;SDS011;54412;51.206;6.888;2022-07-22T00:09:30;10.50;;;5.97;;
5245;SDS011;54412;51.206;6.888;2022-07-22T00:11:56;13.07;;;6.33;;
5245;SDS011;54412;51.206;6.888;2022-07-22T00:14:21;10.63;;;5.10;;
5245;SDS011;54412;51.206;6.888;2022-07-22T00:16:47;7.10;;;4.57;;
5245;SDS011;54412;51.206;6.888;2022-07-22T00:19:13;4.13;;;3.73;;
5245;SDS011;54412;51.206;6.888;2022-07-22T00:21:39;7.70;;;3.80;;
5245;SDS011;54412;51.206;6.888;2022-07-22T00:24:05;7.07;;;4.10;;
5245;SDS011;54412;51.206;6.888;2022-07-22T00:26:31;5.30;;;4.13;;
5245;SDS011;54412;51.206;6.888;2022-07-22T00:28:56;3.13;;;2.90;;
5245;SDS011;54412;51.206;6.888;2022-07-22T00:31:22;7.60;;;3.73;;
5245;SDS011;54412;51.206;6.888;2022-07-22T00:33:48;4.10;;;3.80;;
5245;SDS011;54412;51.206;6.888;2022-07-22T00:36:14;4.97;;;4.37;;
5245;SDS011;54412;51.206;6.888;2022-07-22T00:38:39;5.00;;;4.00;;
5245;SDS011;54412;51.206;6.888;2022-07-22T00:41:05;5.50;;;4.43;;
5245;SDS011;54412;51.206;6.888;2022-07-22T00:43:50;6.53;;;4.70;;
5245;SDS011;54412;51.206;6.888;2022-07-22T00:46:28;4.87;;;4.23;;
5245;SDS011;54412;51.206;6.888;2022-07-22T00:48:55;7.23;;;4.97;;
5245;SDS011;54412;51.206;6.888;2022-07-22T00:51:23;8.70;;;5.27;;
5245;SDS011;54412;51.206;6.888;2022-07-22T00:53:51;7.93;;;4.73;;
5245;SDS011;54412;51.206;6.888;2022-07-22T00:56:19;8.10;;;4.73;;
5245;SDS011;54412;51.206;6.888;2022-07-22T00:58:47;7.03;;;4.53;;
5245;SDS011;54412;51.206;6.888;2022-07-22T01:01:15;8.30;;;4.77;;
5245;SDS011;54412;51.206;6.888;2022-07-22T01:03:41;10.77;;;5.00;;
5245;SDS011;54412;51.206;6.888;2022-07-22T01:06:08;6.70;;;5.40;;
5245;SDS011;54412;51.206;6.888;2022-07-22T01:08:35;7.47;;;5.40;;
5245;SDS011;54412;51.206;6.888;2022-07-22T01:11:06;7.00;;;4.60;;
5245;SDS011;54412;51.206;6.888;2022-07-22T01:13:37;6.00;;;5.00;;
5245;SDS011;54412;51.206;6.888;2022-07-22T01:16:05;8.77;;;4.93;;
5245;SDS011;54412;51.206;6.888;2022-07-22T01:18:32;3.93;;;3.50;;
5245;SDS011;54412;51.206;6.888;2022-07-22T01:20:59;7.53;;;4.00;;
5245;SDS011;54412;51.206;6.888;2022-07-22T01:23:25;6.47;;;4.13;;
5245;SDS011;54412;51.206;6.888;2022-07-22T01:25:51;5.37;;;4.37;;
5245;SDS011;54412;51.206;6.888;2022-07-22T01:28:17;10.90;;;4.97;;
5245;SDS011;54412;51.206;6.888;2022-07-22T01:30:42;4.70;;;3.93;;
5245;SDS011;54412;51.206;6.888;2022-07-22T01:33:08;5.50;;;4.47;;
5245;SDS011;54412;51.206;6.888;2022-07-22T01:35:34;6.60;;;4.50;;
5245;SDS011;54412;51.206;6.888;2022-07-22T01:37:59;7.47;;;4.53;;
5245;SDS011;54412;51.206;6.888;2022-07-22T01:40:25;7.90;;;5.17;;
5245;SDS011;54412;51.206;6.888;2022-07-22T01:42:51;5.70;;;5.03;;
5245;SDS011;54412;51.206;6.888;2022-07-22T01:45:17;9.23;;;5.33;;
5245;SDS011;54412;51.206;6.888;2022-07-22T01:47:42;7.10;;;6.30;;
5245;SDS011;54412;51.206;6.888;2022-07-22T01:50:09;8.53;;;5.70;;
5245;SDS011;54412;51.206;6.888;2022-07-22T01:52:37;15.60;;;5.77;;
5245;SDS011;54412;51.206;6.888;2022-07-22T01:55:05;12.03;;;7.20;;
5245;SDS011;54412;51.206;6.888;2022-07-22T01:57:32;12.07;;;6.53;;
5245;SDS011;54412;51.206;6.888;2022-07-22T01:59:58;8.27;;;6.27;;
5245;SDS011;54412;51.206;6.888;2022-07-22T02:02:24;7.90;;;6.43;;
5245;SDS011;54412;51.206;6.888;2022-07-22T02:04:50;8.33;;;6.27;;
5245;SDS011;54412;51.206;6.888;2022-07-22T02:07:15;13.93;;;6.90;;
5245;SDS011;54412;51.206;6.888;2022-07-22T02:09:41;9.20;;;7.07;;
5245;SDS011;54412;51.206;6.888;2022-07-22T02:12:07;7.90;;;7.20;;
5245;SDS011;54412;51.206;6.888;2022-07-22T02:14:33;9.30;;;7.13;;
5245;SDS011;54412;51.206;6.888;2022-07-22T02:16:59;12.30;;;7.20;;
5245;SDS011;54412;51.206;6.888;2022-07-22T02:19:25;10.03;;;8.53;;
5245;SDS011;54412;51.206;6.888;2022-07-22T02:21:50;11.53;;;7.50;;
5245;SDS011;54412;51.206;6.888;2022-07-22T02:24:16;12.13;;;7.00;;
5245;SDS011;54412;51.206;6.888;2022-07-22T02:26:42;14.23;;;7.73;;
5245;SDS011;54412;51.206;6.888;2022-07-22T02:29:07;15.83;;;8.50;;
5245;SDS011;54412;51.206;6.888;2022-07-22T02:31:33;10.20;;;8.30;;
5245;SDS011;54412;51.206;6.888;2022-07-22T02:33:59;10.10;;;8.30;;
5245;SDS011;54412;51.206;6.888;2022-07-22T02:36:24;12.50;;;8.27;;
5245;SDS011;54412;51.206;6.888;2022-07-22T02:38:50;11.80;;;7.77;;
5245;SDS011;54412;51.206;6.888;2022-07-22T02:41:16;11.60;;;9.50;;
5245;SDS011;54412;51.206;6.888;2022-07-22T02:43:42;13.33;;;8.40;;
5245;SDS011;54412;51.206;6.888;2022-07-22T02:46:07;12.53;;;8.60;;
5245;SDS011;54412;51.206;6.888;2022-07-22T02:48:33;12.07;;;8.17;;
5245;SDS011;54412;51.206;6.888;2022-07-22T02:50:59;9.87;;;7.30;;
5245;SDS011;54412;51.206;6.888;2022-07-22T02:53:25;10.60;;;7.93;;
5245;SDS011;54412;51.206;6.888;2022-07-22T02:55:50;10.40;;;8.10;;
5245;SDS011;54412;51.206;6.888;2022-07-22T02:58:16;7.70;;;7.00;;
5245;SDS011;54412;51.206;6.888;2022-07-22T03:00:42;11.17;;;7.20;;
5245;SDS011;54412;51.206;6.888;2022-07-22T03:03:07;9.47;;;7.50;;
5245;SDS011;54412;51.206;6.888;2022-07-22T03:05:33;9.87;;;8.30;;
5245;SDS011;54412;51.206;6.888;2022-07-22T03:07:59;12.23;;;8.30;;
5245;SDS011;54412;51.206;6.888;2022-07-22T03:10:24;12.43;;;8.53;;
5245;SDS011;54412;51.206;6.888;2022-07-22T03:12:50;14.20;;;7.90;;
5245;SDS011;54412;51.206;6.888;2022-07-22T03:15:16;14.30;;;7.00;;
5245;SDS011;54412;51.206;6.888;2022-07-22T03:17:41;13.00;;;8.10;;
5245;SDS011;54412;51.206;6.888;2022-07-22T03:20:08;9.33;;;8.53;;
5245;SDS011;54412;51.206;6.888;2022-07-22T03:22:35;9.60;;;7.83;;
5245;SDS011;54412;51.206;6.888;2022-07-22T03:25:02;10.73;;;8.47;;
5245;SDS011;54412;51.206;6.888;2022-07-22T03:27:28;10.23;;;7.80;;
5245;SDS011;54412;51.206;6.888;2022-07-22T03:29:54;10.83;;;7.63;;
5245;SDS011;54412;51.206;6.888;2022-07-22T03:32:20;10.00;;;8.90;;
5245;SDS011;54412;51.206;6.888;2022-07-22T03:34:46;9.10;;;7.40;;
5245;SDS011;54412;51.206;6.888;2022-07-22T03:37:11;9.40;;;8.47;;
5245;SDS011;54412;51.206;6.888;2022-07-22T03:39:37;12.63;;;9.00;;
5245;SDS011;54412;51.206;6.888;2022-07-22T03:42:03;13.13;;;10.90;;
5245;SDS011;54412;51.206;6.888;2022-07-22T03:44:29;14.73;;;11.40;;
5245;SDS011;54412;51.206;6.888;2022-07-22T03:46:55;15.90;;;11.03;;
5245;SDS011;54412;51.206;6.888;2022-07-22T03:49:20;12.07;;;10.80;;
5245;SDS011;54412;51.206;6.888;2022-07-22T03:51:47;21.17;;;12.00;;
5245;SDS011;54412;51.206;6.888;2022-07-22T03:54:13;14.70;;;12.00;;
5245;SDS011;54412;51.206;6.888;2022-07-22T03:56:38;14.73;;;11.97;;
5245;SDS011;54412;51.206;6.888;2022-07-22T03:59:04;27.70;;;11.43;;
5245;SDS011;54412;51.206;6.888;2022-07-22T04:01:30;14.40;;;12.90;;
5245;SDS011;54412;51.206;6.888;2022-07-22T04:03:55;23.47;;;13.57;;
5245;SDS011;54412;51.206;6.888;2022-07-22T04:06:21;29.93;;;14.27;;
5245;SDS011;54412;51.206;6.888;2022-07-22T04:08:47;15.53;;;13.80;;
5245;SDS011;54412;51.206;6.888;2022-07-22T04:11:13;15.37;;;13.87;;
5245;SDS011;54412;51.206;6.888;2022-07-22T04:13:39;16.57;;;12.77;;
5245;SDS011;54412;51.206;6.888;2022-07-22T04:16:05;14.83;;;12.33;;
5245;SDS011;54412;51.206;6.888;2022-07-22T04:18:31;14.43;;;12.40;;
5245;SDS011;54412;51.206;6.888;2022-07-22T04:20:57;13.17;;;11.77;;
5245;SDS011;54412;51.206;6.888;2022-07-22T04:23:24;18.03;;;12.80;;
5245;SDS011;54412;51.206;6.888;2022-07-22T04:25:49;15.20;;;13.60;;
5245;SDS011;54412;51.206;6.888;2022-07-22T04:28:15;14.77;;;13.33;;
5245;SDS011;54412;51.206;6.888;2022-07-22T04:30:41;15.60;;;12.50;;
5245;SDS011;54412;51.206;6.888;2022-07-22T04:33:07;15.50;;;13.70;;
5245;SDS011;54412;51.206;6.888;2022-07-22T04:35:32;14.50;;;11.37;;
5245;SDS011;54412;51.206;6.888;2022-07-22T04:37:58;11.73;;;8.37;;
5245;SDS011;54412;51.206;6.888;2022-07-22T04:40:24;12.43;;;6.90;;
5245;SDS011;54412;51.206;6.888;2022-07-22T04:42:49;6.50;;;5.50;;
5245;SDS011;54412;51.206;6.888;2022-07-22T04:45:15;9.63;;;5.13;;
5245;SDS011;54412;51.206;6.888;2022-07-22T04:47:41;6.50;;;4.80;;
5245;SDS011;54412;51.206;6.888;2022-07-22T04:50:07;7.70;;;4.70;;
5245;SDS011;54412;51.206;6.888;2022-07-22T04:52:33;5.10;;;4.40;;
5245;SDS011;54412;51.206;6.888;2022-07-22T04:54:59;9.20;;;4.43;;
5245;SDS011;54412;51.206;6.888;2022-07-22T04:57:25;8.13;;;4.10;;
5245;SDS011;54412;51.206;6.888;2022-07-22T04:59:51;8.53;;;6.30;;
5245;SDS011;54412;51.206;6.888;2022-07-22T05:02:18;13.33;;;6.60;;
5245;SDS011;54412;51.206;6.888;2022-07-22T05:04:44;4.33;;;3.63;;
5245;SDS011;54412;51.206;6.888;2022-07-22T05:07:10;8.53;;;3.80;;
5245;SDS011;54412;51.206;6.888;2022-07-22T05:09:36;8.57;;;3.30;;
5245;SDS011;54412;51.206;6.888;2022-07-22T05:12:02;12.53;;;4.13;;
5245;SDS011;54412;51.206;6.888;2022-07-22T05:14:29;11.53;;;4.17;;
5245;SDS011;54412;51.206;6.888;2022-07-22T05:16:55;4.70;;;3.63;;
5245;SDS011;54412;51.206;6.888;2022-07-22T05:19:21;8.50;;;4.00;;
5245;SDS011;54412;51.206;6.888;2022-07-22T05:21:46;9.63;;;3.93;;
5245;SDS011;54412;51.206;6.888;2022-07-22T05:24:12;7.00;;;4.20;;
5245;SDS011;54412;51.206;6.888;2022-07-22T05:26:38;7.03;;;3.20;;
5245;SDS011;54412;51.206;6.888;2022-07-22T05:29:04;7.33;;;3.40;;
5245;SDS011;54412;51.206;6.888;2022-07-22T05:31:29;10.67;;;3.83;;
5245;SDS011;54412;51.206;6.888;2022-07-22T05:33:55;6.57;;;3.53;;
5245;SDS011;54412;51.206;6.888;2022-07-22T05:36:21;10.90;;;3.90;;
5245;SDS011;54412;51.206;6.888;2022-07-22T05:38:47;6.80;;;3.93;;
5245;SDS011;54412;51.206;6.888;2022-07-22T05:41:13;6.20;;;3.97;;
5245;SDS011;54412;51.206;6.888;2022-07-22T05:43:39;10.03;;;4.20;;
5245;SDS011;54412;51.206;6.888;2022-07-22T05:46:04;6.53;;;3.80;;
5245;SDS011;54412;51.206;6.888;2022-07-22T05:48:32;5.47;;;3.87;;
5245;SDS011;54412;51.206;6.888;2022-07-22T05:50:58;5.90;;;3.60;;
5245;SDS011;54412;51.206;6.888;2022-07-22T05:53:24;8.13;;;4.27;;
5245;SDS011;54412;51.206;6.888;2022-07-22T05:55:50;3.90;;;3.00;;
5245;SDS011;54412;51.206;6.888;2022-07-22T05:58:15;9.67;;;4.63;;
5245;SDS011;54412;51.206;6.888;2022-07-22T06:00:41;8.30;;;3.53;;
5245;SDS011;54412;51.206;6.888;2022-07-22T06:03:07;12.20;;;3.67;;
5245;SDS011;54412;51.206;6.888;2022-07-22T06:05:33;5.60;;;3.10;;
5245;SDS011;54412;51.206;6.888;2022-07-22T06:08:00;4.70;;;3.43;;
5245;SDS011;54412;51.206;6.888;2022-07-22T06:10:27;5.63;;;3.73;;
5245;SDS011;54412;51.206;6.888;2022-07-22T06:12:52;6.70;;;3.70;;
5245;SDS011;54412;51.206;6.888;2022-07-22T06:15:18;6.10;;;3.60;;
5245;SDS011;54412;51.206;6.888;2022-07-22T06:17:44;10.77;;;3.87;;
5245;SDS011;54412;51.206;6.888;2022-07-22T06:20:09;5.73;;;3.73;;
5245;SDS011;54412;51.206;6.888;2022-07-22T06:22:35;5.43;;;4.23;;
5245;SDS011;54412;51.206;6.888;2022-07-22T06:25:01;6.83;;;4.10;;
5245;SDS011;54412;51.206;6.888;2022-07-22T06:27:27;9.60;;;4.60;;
5245;SDS011;54412;51.206;6.888;2022-07-22T06:29:53;5.77;;;3.53;;
5245;SDS011;54412;51.206;6.888;2022-07-22T06:32:18;10.73;;;4.17;;
5245;SDS011;54412;51.206;6.888;2022-07-22T06:34:44;8.40;;;4.23;;
5245;SDS011;54412;51.206;6.888;2022-07-22T06:37:09;7.13;;;4.03;;
5245;SDS011;54412;51.206;6.888;2022-07-22T06:39:35;7.10;;;3.93;;
5245;SDS011;54412;51.206;6.888;2022-07-22T06:42:01;6.97;;;3.77;;
5245;SDS011;54412;51.206;6.888;2022-07-22T06:44:27;9.50;;;4.33;;
5245;SDS011;54412;51.206;6.888;2022-07-22T06:46:52;14.00;;;3.70;;
5245;SDS011;54412;51.206;6.888;2022-07-22T06:49:18;6.63;;;3.37;;
5245;SDS011;54412;51.206;6.888;2022-07-22T06:51:44;14.90;;;3.40;;
5245;SDS011;54412;51.206;6.888;2022-07-22T06:54:09;9.17;;;3.80;;
5245;SDS011;54412;51.206;6.888;2022-07-22T06:56:35;5.77;;;3.10;;
5245;SDS011;54412;51.206;6.888;2022-07-22T06:59:01;5.73;;;3.50;;
5245;SDS011;54412;51.206;6.888;2022-07-22T07:01:27;6.50;;;3.10;;
5245;SDS011;54412;51.206;6.888;2022-07-22T07:03:52;5.83;;;2.93;;
5245;SDS011;54412;51.206;6.888;2022-07-22T07:06:18;11.10;;;3.67;;
5245;SDS011;54412;51.206;6.888;2022-07-22T07:08:45;6.37;;;3.20;;
5245;SDS011;54412;51.206;6.888;2022-07-22T07:11:10;9.77;;;3.93;;
5245;SDS011;54412;51.206;6.888;2022-07-22T07:13:36;5.90;;;3.40;;
5245;SDS011;54412;51.206;6.888;2022-07-22T07:16:02;6.63;;;2.60;;
5245;SDS011;54412;51.206;6.888;2022-07-22T07:18:28;4.97;;;2.90;;
5245;SDS011;54412;51.206;6.888;2022-07-22T07:20:53;18.10;;;3.50;;
5245;SDS011;54412;51.206;6.888;2022-07-22T07:23:19;11.53;;;3.57;;
5245;SDS011;54412;51.206;6.888;2022-07-22T07:25:46;5.10;;;3.00;;
5245;SDS011;54412;51.206;6.888;2022-07-22T07:28:12;8.33;;;3.40;;
5245;SDS011;54412;51.206;6.888;2022-07-22T07:30:37;6.00;;;3.40;;
5245;SDS011;54412;51.206;6.888;2022-07-22T07:33:03;7.20;;;3.30;;
5245;SDS011;54412;51.206;6.888;2022-07-22T07:35:29;6.80;;;3.40;;
5245;SDS011;54412;51.206;6.888;2022-07-22T07:37:55;8.20;;;3.50;;
5245;SDS011;54412;51.206;6.888;2022-07-22T07:40:20;6.57;;;4.30;;
5245;SDS011;54412;51.206;6.888;2022-07-22T07:42:46;12.60;;;4.30;;
5245;SDS011;54412;51.206;6.888;2022-07-22T07:45:12;7.30;;;4.30;;
5245;SDS011;54412;51.206;6.888;2022-07-22T07:47:38;14.83;;;4.57;;
5245;SDS011;54412;51.206;6.888;2022-07-22T07:50:04;9.50;;;4.40;;
5245;SDS011;54412;51.206;6.888;2022-07-22T07:52:36;13.03;;;5.00;;
5245;SDS011;54412;51.206;6.888;2022-07-22T07:55:07;9.27;;;4.97;;
5245;SDS011;54412;51.206;6.888;2022-07-22T07:57:34;6.40;;;4.30;;
5245;SDS011;54412;51.206;6.888;2022-07-22T08:00:02;11.33;;;4.13;;
5245;SDS011;54412;51.206;6.888;2022-07-22T08:02:34;12.30;;;5.07;;
5245;SDS011;54412;51.206;6.888;2022-07-22T08:04:59;6.33;;;4.80;;
5245;SDS011;54412;51.206;6.888;2022-07-22T08:07:26;10.43;;;4.77;;
5245;SDS011;54412;51.206;6.888;2022-07-22T08:09:53;15.37;;;4.73;;
5245;SDS011;54412;51.206;6.888;2022-07-22T08:12:18;5.87;;;4.20;;
5245;SDS011;54412;51.206;6.888;2022-07-22T08:14:44;8.43;;;4.70;;
5245;SDS011;54412;51.206;6.888;2022-07-22T08:17:10;4.50;;;4.10;;
5245;SDS011;54412;51.206;6.888;2022-07-22T08:19:36;18.33;;;5.80;;
5245;SDS011;54412;51.206;6.888;2022-07-22T08:22:02;9.10;;;5.50;;
5245;SDS011;54412;51.206;6.888;2022-07-22T08:24:27;10.93;;;5.87;;
5245;SDS011;54412;51.206;6.888;2022-07-22T08:26:53;6.40;;;5.70;;
5245;SDS011;54412;51.206;6.888;2022-07-22T08:29:19;11.57;;;6.03;;
5245;SDS011;54412;51.206;6.888;2022-07-22T08:31:45;9.53;;;6.33;;
5245;SDS011;54412;51.206;6.888;2022-07-22T08:34:11;16.17;;;6.07;;
5245;SDS011;54412;51.206;6.888;2022-07-22T08:36:37;10.73;;;6.00;;
5245;SDS011;54412;51.206;6.888;2022-07-22T08:39:02;15.67;;;5.97;;
5245;SDS011;54412;51.206;6.888;2022-07-22T08:41:29;11.80;;;5.63;;
5245;SDS011;54412;51.206;6.888;2022-07-22T08:44:03;9.20;;;4.77;;
5245;SDS011;54412;51.206;6.888;2022-07-22T08:46:31;11.10;;;5.10;;
5245;SDS011;54412;51.206;6.888;2022-07-22T08:48:58;10.43;;;5.17;;
5245;SDS011;54412;51.206;6.888;2022-07-22T08:51:25;8.70;;;4.90;;
5245;SDS011;54412;51.206;6.888;2022-07-22T08:53:53;5.07;;;4.40;;
5245;SDS011;54412;51.206;6.888;2022-07-22T08:56:19;10.43;;;4.33;;
5245;SDS011;54412;51.206;6.888;2022-07-22T08:58:45;10.03;;;4.40;;
5245;SDS011;54412;51.206;6.888;2022-07-22T09:01:12;5.23;;;4.20;;
5245;SDS011;54412;51.206;6.888;2022-07-22T09:03:45;4.87;;;3.53;;
5245;SDS011;54412;51.206;6.888;2022-07-22T09:06:18;7.33;;;4.00;;
5245;SDS011;54412;51.206;6.888;2022-07-22T09:08:49;16.20;;;4.27;;
5245;SDS011;54412;51.206;6.888;2022-07-22T09:11:18;9.97;;;4.83;;
5245;SDS011;54412;51.206;6.888;2022-07-22T09:13:45;5.27;;;4.00;;
5245;SDS011;54412;51.206;6.888;2022-07-22T09:16:12;4.83;;;4.33;;
5245;SDS011;54412;51.206;6.888;2022-07-22T09:18:52;15.93;;;5.07;;
5245;SDS011;54412;51.206;6.888;2022-07-22T09:21:22;7.20;;;4.17;;
5245;SDS011;54412;51.206;6.888;2022-07-22T09:23:48;4.23;;;3.40;;
5245;SDS011;54412;51.206;6.888;2022-07-22T09:26:30;7.27;;;3.90;;
5245;SDS011;54412;51.206;6.888;2022-07-22T09:28:57;8.83;;;3.70;;
5245;SDS011;54412;51.206;6.888;2022-07-22T09:31:28;7.87;;;4.53;;
5245;SDS011;54412;51.206;6.888;2022-07-22T09:33:58;7.10;;;4.50;;
5245;SDS011;54412;51.206;6.888;2022-07-22T09:36:25;9.37;;;4.33;;
5245;SDS011;54412;51.206;6.888;2022-07-22T09:38:51;8.30;;;4.80;;
5245;SDS011;54412;51.206;6.888;2022-07-22T09:41:18;8.97;;;4.60;;
5245;SDS011;54412;51.206;6.888;2022-07-22T09:43:44;10.70;;;4.47;;
5245;SDS011;54412;51.206;6.888;2022-07-22T09:46:10;7.50;;;5.40;;
5245;SDS011;54412;51.206;6.888;2022-07-22T09:48:37;9.80;;;5.93;;
5245;SDS011;54412;51.206;6.888;2022-07-22T09:51:04;8.73;;;5.40;;
5245;SDS011;54412;51.206;6.888;2022-07-22T09:53:30;8.23;;;5.70;;
5245;SDS011;54412;51.206;6.888;2022-07-22T09:55:59;7.40;;;5.90;;
5245;SDS011;54412;51.206;6.888;2022-07-22T09:58:28;6.70;;;5.30;;
5245;SDS011;54412;51.206;6.888;2022-07-22T10:00:55;8.97;;;6.63;;
5245;SDS011;54412;51.206;6.888;2022-07-22T10:03:34;6.30;;;5.10;;
5245;SDS011;54412;51.206;6.888;2022-07-22T10:06:02;7.23;;;5.07;;
5245;SDS011;54412;51.206;6.888;2022-07-22T10:08:30;10.87;;;5.87;;
5245;SDS011;54412;51.206;6.888;2022-07-22T10:10:59;8.23;;;5.70;;
5245;SDS011;54412;51.206;6.888;2022-07-22T10:13:31;7.37;;;5.90;;
5245;SDS011;54412;51.206;6.888;2022-07-22T10:15:59;9.10;;;7.13;;
5245;SDS011;54412;51.206;6.888;2022-07-22T10:18:25;11.13;;;7.47;;
5245;SDS011;54412;51.206;6.888;2022-07-22T10:21:01;13.60;;;7.73;;
5245;SDS011;54412;51.206;6.888;2022-07-22T10:23:32;11.00;;;7.83;;
5245;SDS011;54412;51.206;6.888;2022-07-22T10:25:59;12.43;;;8.53;;
5245;SDS011;54412;51.206;6.888;2022-07-22T10:28:28;11.37;;;8.30;;
5245;SDS011;54412;51.206;6.888;2022-07-22T10:33:41;10.93;;;8.63;;
5245;SDS011;54412;51.206;6.888;2022-07-22T10:36:09;13.77;;;9.50;;
5245;SDS011;54412;51.206;6.888;2022-07-22T10:38:35;13.10;;;8.53;;
5245;SDS011;54412;51.206;6.888;2022-07-22T10:41:03;14.67;;;8.80;;
5245;SDS011;54412;51.206;6.888;2022-07-22T10:46:07;15.93;;;10.43;;
5245;SDS011;54412;51.206;6.888;2022-07-22T10:51:10;14.43;;;10.10;;
5245;SDS011;54412;51.206;6.888;2022-07-22T10:53:58;13.90;;;9.87;;
5245;SDS011;54412;51.206;6.888;2022-07-22T10:58:59;12.70;;;10.00;;
5245;SDS011;54412;51.206;6.888;2022-07-22T11:01:38;16.10;;;10.47;;
5245;SDS011;54412;51.206;6.888;2022-07-22T11:04:17;13.30;;;9.70;;
5245;SDS011;54412;51.206;6.888;2022-07-22T11:06:52;15.53;;;11.63;;
5245;SDS011;54412;51.206;6.888;2022-07-22T11:09:21;19.80;;;12.10;;
5245;SDS011;54412;51.206;6.888;2022-07-22T11:11:56;26.10;;;11.50;;
5245;SDS011;54412;51.206;6.888;2022-07-22T11:14:23;14.70;;;11.17;;
5245;SDS011;54412;51.206;6.888;2022-07-22T11:16:59;21.20;;;10.90;;
5245;SDS011;54412;51.206;6.888;2022-07-22T11:19:34;17.23;;;11.43;;
5245;SDS011;54412;51.206;6.888;2022-07-22T11:22:06;14.00;;;11.40;;
5245;SDS011;54412;51.206;6.888;2022-07-22T11:24:36;13.67;;;11.17;;
5245;SDS011;54412;51.206;6.888;2022-07-22T11:27:03;27.73;;;15.03;;
5245;SDS011;54412;51.206;6.888;2022-07-22T11:32:09;21.90;;;11.90;;
5245;SDS011;54412;51.206;6.888;2022-07-22T11:34:37;17.00;;;11.97;;
5245;SDS011;54412;51.206;6.888;2022-07-22T11:37:10;18.27;;;11.73;;
5245;SDS011;54412;51.206;6.888;2022-07-22T11:39:37;14.50;;;12.10;;
5245;SDS011;54412;51.206;6.888;2022-07-22T11:42:03;17.93;;;13.30;;
5245;SDS011;54412;51.206;6.888;2022-07-22T11:44:30;16.33;;;12.73;;
5245;SDS011;54412;51.206;6.888;2022-07-22T11:46:59;15.63;;;12.90;;
5245;SDS011;54412;51.206;6.888;2022-07-22T11:49:26;17.50;;;13.37;;
5245;SDS011;54412;51.206;6.888;2022-07-22T11:51:55;20.83;;;15.40;;
5245;SDS011;54412;51.206;6.888;2022-07-22T11:54:21;16.47;;;12.57;;
5245;SDS011;54412;51.206;6.888;2022-07-22T11:56:47;19.47;;;13.73;;
5245;SDS011;54412;51.206;6.888;2022-07-22T11:59:16;20.93;;;14.30;;
5245;SDS011;54412;51.206;6.888;2022-07-22T12:01:43;15.93;;;12.80;;
5245;SDS011;54412;51.206;6.888;2022-07-22T12:04:13;19.27;;;14.60;;
5245;SDS011;54412;51.206;6.888;2022-07-22T12:06:50;17.30;;;13.33;;
5245;SDS011;54412;51.206;6.888;2022-07-22T12:09:25;21.00;;;15.97;;
5245;SDS011;54412;51.206;6.888;2022-07-22T12:11:56;15.00;;;12.63;;
5245;SDS011;54412;51.206;6.888;2022-07-22T12:14:27;19.60;;;13.17;;
5245;SDS011;54412;51.206;6.888;2022-07-22T12:19:28;20.80;;;15.30;;
5245;SDS011;54412;51.206;6.888;2022-07-22T12:21:58;18.97;;;13.50;;
5245;SDS011;54412;51.206;6.888;2022-07-22T12:27:06;19.63;;;14.80;;
5245;SDS011;54412;51.206;6.888;2022-07-22T12:32:06;23.67;;;14.13;;
5245;SDS011;54412;51.206;6.888;2022-07-22T12:34:40;21.37;;;13.03;;
5245;SDS011;54412;51.206;6.888;2022-07-22T12:42:41;18.73;;;14.10;;
5245;SDS011;54412;51.206;6.888;2022-07-22T12:45:12;20.63;;;14.40;;
5245;SDS011;54412;51.206;6.888;2022-07-22T12:47:53;19.73;;;13.90;;
5245;SDS011;54412;51.206;6.888;2022-07-22T12:53:12;20.93;;;13.27;;
5245;SDS011;54412;51.206;6.888;2022-07-22T12:55:42;18.50;;;14.17;;
5245;SDS011;54412;51.206;6.888;2022-07-22T12:58:13;22.73;;;14.50;;
5245;SDS011;54412;51.206;6.888;2022-07-22T13:00:41;23.63;;;15.10;;
5245;SDS011;54412;51.206;6.888;2022-07-22T13:03:09;20.63;;;14.40;;
5245;SDS011;54412;51.206;6.888;2022-07-22T13:05:35;19.23;;;14.83;;
5245;SDS011;54412;51.206;6.888;2022-07-22T13:08:02;21.97;;;14.93;;
5245;SDS011;54412;51.206;6.888;2022-07-22T13:10:28;23.60;;;14.57;;
5245;SDS011;54412;51.206;6.888;2022-07-22T13:12:54;23.07;;;15.77;;
5245;SDS011;54412;51.206;6.888;2022-07-22T13:15:20;19.50;;;14.27;;
5245;SDS011;54412;51.206;6.888;2022-07-22T13:17:48;17.37;;;13.63;;
5245;SDS011;54412;51.206;6.888;2022-07-22T13:20:15;20.87;;;13.27;;
5245;SDS011;54412;51.206;6.888;2022-07-22T13:22:43;19.40;;;13.27;;
5245;SDS011;54412;51.206;6.888;2022-07-22T13:25:10;23.30;;;14.90;;
5245;SDS011;54412;51.206;6.888;2022-07-22T13:27:36;20.30;;;13.37;;
5245;SDS011;54412;51.206;6.888;2022-07-22T13:30:02;21.70;;;13.90;;
5245;SDS011;54412;51.206;6.888;2022-07-22T13:32:29;22.20;;;15.63;;
5245;SDS011;54412;51.206;6.888;2022-07-22T13:34:55;28.90;;;16.30;;
5245;SDS011;54412;51.206;6.888;2022-07-22T13:37:21;25.47;;;14.97;;
5245;SDS011;54412;51.206;6.888;2022-07-22T13:39:47;24.00;;;15.63;;
5245;SDS011;54412;51.206;6.888;2022-07-22T13:42:14;21.53;;;16.07;;
5245;SDS011;54412;51.206;6.888;2022-07-22T13:44:44;20.30;;;16.10;;
5245;SDS011;54412;51.206;6.888;2022-07-22T13:47:11;23.83;;;15.60;;
5245;SDS011;54412;51.206;6.888;2022-07-22T13:49:38;22.87;;;16.60;;
5245;SDS011;54412;51.206;6.888;2022-07-22T13:52:03;21.70;;;14.83;;
5245;SDS011;54412;51.206;6.888;2022-07-22T13:54:30;20.77;;;15.60;;
5245;SDS011;54412;51.206;6.888;2022-07-22T13:56:58;26.10;;;16.40;;
5245;SDS011;54412;51.206;6.888;2022-07-22T13:59:25;21.63;;;16.17;;
5245;SDS011;54412;51.206;6.888;2022-07-22T14:01:52;25.73;;;17.50;;
5245;SDS011;54412;51.206;6.888;2022-07-22T14:04:18;27.97;;;17.20;;
5245;SDS011;54412;51.206;6.888;2022-07-22T14:06:43;26.30;;;19.13;;
5245;SDS011;54412;51.206;6.888;2022-07-22T14:09:09;23.17;;;17.87;;
5245;SDS011;54412;51.206;6.888;2022-07-22T14:11:35;26.87;;;18.77;;
5245;SDS011;54412;51.206;6.888;2022-07-22T14:14:00;22.93;;;15.90;;
5245;SDS011;54412;51.206;6.888;2022-07-22T14:16:26;23.37;;;17.57;;
5245;SDS011;54412;51.206;6.888;2022-07-22T14:18:58;24.23;;;17.67;;
5245;SDS011;54412;51.206;6.888;2022-07-22T14:21:33;23.27;;;17.03;;
5245;SDS011;54412;51.206;6.888;2022-07-22T14:24:00;22.67;;;17.23;;
5245;SDS011;54412;51.206;6.888;2022-07-22T14:26:27;27.40;;;18.37;;
5245;SDS011;54412;51.206;6.888;2022-07-22T14:28:54;31.03;;;19.73;;
5245;SDS011;54412;51.206;6.888;2022-07-22T14:31:20;24.97;;;18.77;;
5245;SDS011;54412;51.206;6.888;2022-07-22T14:33:46;23.70;;;17.83;;
5245;SDS011;54412;51.206;6.888;2022-07-22T14:36:13;23.90;;;18.27;;
5245;SDS011;54412;51.206;6.888;2022-07-22T14:38:39;28.07;;;19.10;;
5245;SDS011;54412;51.206;6.888;2022-07-22T14:41:05;29.97;;;20.90;;
5245;SDS011;54412;51.206;6.888;2022-07-22T14:43:32;23.23;;;18.30;;
5245;SDS011;54412;51.206;6.888;2022-07-22T14:45:59;26.83;;;18.30;;
5245;SDS011;54412;51.206;6.888;2022-07-22T14:48:26;24.40;;;17.80;;
5245;SDS011;54412;51.206;6.888;2022-07-22T14:50:53;24.93;;;16.50;;
5245;SDS011;54412;51.206;6.888;2022-07-22T14:53:18;23.90;;;17.33;;
5245;SDS011;54412;51.206;6.888;2022-07-22T14:55:44;26.00;;;16.70;;
5245;SDS011;54412;51.206;6.888;2022-07-22T14:58:10;20.67;;;15.17;;
5245;SDS011;54412;51.206;6.888;2022-07-22T15:00:36;23.40;;;16.27;;
5245;SDS011;54412;51.206;6.888;2022-07-22T15:03:02;21.17;;;16.40;;
5245;SDS011;54412;51.206;6.888;2022-07-22T15:05:27;17.67;;;13.93;;
5245;SDS011;54412;51.206;6.888;2022-07-22T15:07:53;22.03;;;16.47;;
5245;SDS011;54412;51.206;6.888;2022-07-22T15:10:19;25.10;;;15.17;;
5245;SDS011;54412;51.206;6.888;2022-07-22T15:12:44;23.13;;;16.50;;
5245;SDS011;54412;51.206;6.888;2022-07-22T15:15:10;23.80;;;16.30;;
5245;SDS011;54412;51.206;6.888;2022-07-22T15:17:36;23.17;;;16.77;;